Relevés horaires St-Hubert (Belgique)


Relevés horaires à St-Hubert - Lundi 14 Juin 2021
Heure UTC1 Température [°C] Vent [km/h] Hum. [%] Pres.4 [hPa] Visi. [Km] Nébu. [octa] Préc.5 [mm] Cond.
2m. Res. Ros. Dir.2 Vit. Moy. Raf.3
23:00 16.4 16.4 10.3 ENE 3.7 5.6 5.6 67 1019.8(0.1/3h) 40 0/8 -- --
22:00 18.3 18.3 9.5 NE 5.6 5.6 7.4 56 1019.6(0.4/3h) 45 0/8 -- --
21:00 18.8 18.8 9.7 NE 5.6 7.4 11.1 55 1019.7(0.6/3h) 45 0/8 -- --
20:00 20.9 20.9 10.3 N 3.7 5.6 7.4 51 1018.7(0.2/3h) 45 0/8 -- --
19:00 22.9 22.9 9.6 N 3.7 7.4 11.1 43 1018.2(-0.2/3h) 40 0/8 -- --
18:00 24.4 24.4 9.0 NNO 9.3 9.3 11.1 38 1017.8(-0.6/3h) 35 0/8 0/12h
--
17:00 25.1 25.1 8.6 NNO 5.6 5.6 9.3 35 1017.6(-1.0/3h) 35 0/8 -- --
16:00 25.2 25.2 9.7 NO 3.7 7.4 11.1 38 1017.9(-1.0/3h) 40 0/8 -- --
15:00 25.4 25.4 9.3 NNO 1.9 5.6 11.1 36 1018.3(-1.1/3h) 35 0/8 -- --
14:00 24.8 24.8 8.8 NNO 1.9 3.7 7.4 36 1018.7(-1.2/3h) 35 0/8 -- --
13:00 24.2 24.2 8.0 NNO 1.9 3.7 9.3 36 1019.2(-1.1/3h) 30 0/8 -- --
12:00 23.4 23.4 6.9 NNO 3.7 7.4 13.0 35 1019.9(-0.9/3h) 40 0/8 0/6h
--
11:00 22.1 22.1 7.7 SSO 3.7 5.6 9.3 40 1020.6(-1.0/3h) 35 0/8 -- --
10:00 20.9 20.9 8.5 SO 3.7 5.6 7.4 45 1021(-0.6/3h) 35 0/8 -- --
09:00 19.8 19.8 7.7 S 3.7 7.4 13.0 46 1021.7(0.1/3h) 40 0/8 -- --
08:00 18.1 18.1 7.6 SE 5.6 5.6 11.1 50 1022.6(0.6/3h) 40 0/8 -- --
07:00 16.9 16.9 6.9 SE 5.6 7.4 13.0 52 1022.6(0.2/3h) 35 0/8 -- --
06:00 15.8 15.8 7.5 SE 5.6 9.3 13.0 58 1022.5(-0.5/3h) 40 0/8 0/12h
--
05:00 14.4 14.4 6.7 ESE 5.6 7.4 13.0 60 1022.8(-0.7/3h) 35 0/8 -- --
04:00 13.8 13.6 6.4 ESE 7.4 7.4 11.1 61 1023.1(-1.2/3h) 40 0/8 -- --
03:00 13.7 13.5 6.1 ESE 7.4 9.3 13.0 60 1023.5(-1.2/3h) 40 0/8 -- --
02:00 14.1 13.6 5.8 ESE 9.3 9.3 13.0 57 1023.6(-1.2/3h) 45 0/8 -- --
01:00 11.9 11.4 7.4 E 7.4 7.4 11.1 74 1024.7(-0.8/3h) 45 0/8 -- --
00:00 10.5 10.2 7.9 E 5.6 7.4 11.1 84 1025.5(-0.5/3h) 35 0/8 0/6h
0/24h
--

1 Coordinated Universal Time. Actuellement il est 04:00 locale et 03:00 UTC.

2 Le vent souffle depuis la direction indiquée vers la direction oposée.

3 Les rafales max. sont disponible 40 min après l'heure du relevé.

4 Pour les stations d'altitude (plus de 600m) le géopotentiel du niveau le plus proche de la pression obligatoire est indiqué.

5 Les stations disposant d'un diffuseur peuvent indiquer "trace". Cela signifie que des précipitations ont touchés le sol mais que la quantité est inférieure à 0.1 mm.

Récapitulatif de la journée
Température [°C] Vent [km/h] Ensoleillement4 [h] Precipitations totale5 [mm] Pression [Hpa]
Min1 Max.2 Moy.3 Max. Min Max.
10.3 25.9 6.8 13.0 0 h 0 min 0 1017.6 1025.5

1 Température minimale relevée entre 18:00 UTC la veille et 18:00 UTC le jour donné.

2 Température maximale relevée entre 06:00 UTC le jour donné et 06:00 UTC le lendemain.

3 Vent moyen de la journée basé sur les relevés horaires.

4 Ensoleillement en heures relevé entre 06:00 UTC la veille et 06:00 UTC le jour donné.

5 Précipitations totales tombées entre 06:00 UTC la jour donné et 06:00 UTC le lendemain.

Graphiques horaires